Time;durP1;ratioP1;P1;durP2;ratioP2;P2;SDS_P1;SDS_P2;PMS_P1;PMS_P2;Temp;Humidity;BMP_temperature;BMP_pressure;BME280_temperature;BME280_humidity;BME280_pressure;Samples;Min_cycle;Max_cycle;Signal;HPM_P1;HPM_P2
2022/05/14 06:02:32;;;;;;;9.10;3.70;;;;;;;;;;10535380;28;20408;-85
2022/05/14 06:07:33;;;;;;;;;;;;;;;;;;10532469;28;20410;-84
2022/05/14 06:12:38;;;;;;;5.60;3.05;;;;;;;;;;10513175;28;20315;-84
2022/05/14 06:17:39;;;;;;;6.00;2.80;;;;;;;;;;10527009;28;20013;-84
2022/05/14 06:22:40;;;;;;;6.60;3.03;;;;;;;;;;10529143;28;20025;-85
2022/05/14 06:27:42;;;;;;;6.43;3.55;;;;;;;;;;10530277;28;20107;-85
2022/05/14 06:32:43;;;;;;;5.60;2.90;;;;;;;;;;10529072;28;20017;-84
2022/05/14 06:37:47;;;;;;;7.93;3.30;;;;;;;;;;10509500;28;20032;-85
2022/05/14 06:42:48;;;;;;;6.47;2.95;;;;;;;;;;10512941;28;20025;-85
2022/05/14 06:47:50;;;;;;;7.15;3.42;;;;;;;;;;10532813;28;20039;-85
2022/05/14 06:52:53;;;;;;;12.57;4.40;;;;;;;;;;10538024;28;20020;-85
2022/05/14 06:57:54;;;;;;;8.68;4.10;;;;;;;;;;10539971;28;20064;-84
2022/05/14 07:08:15;;;;;;;4.50;2.03;;;;;;;;;;10508642;28;20037;-80
2022/05/14 07:13:16;;;;;;;5.55;2.47;;;;;;;;;;10474612;28;20017;-80
2022/05/14 07:18:17;;;;;;;5.75;2.50;;;;;;;;;;10467840;28;20021;-80
2022/05/14 07:23:18;;;;;;;8.43;2.67;;;;;;;;;;10468276;28;20113;-80
2022/05/14 07:28:19;;;;;;;5.47;2.53;;;;;;;;;;10466535;28;20036;-79
2022/05/14 07:33:20;;;;;;;6.85;2.55;;;;;;;;;;10470712;28;20029;-79
2022/05/14 07:38:22;;;;;;;5.90;2.75;;;;;;;;;;10474120;28;20081;-79
2022/05/14 07:43:26;;;;;;;6.47;2.70;;;;;;;;;;10485874;28;20093;-80
2022/05/14 07:48:30;;;;;;;7.63;2.75;;;;;;;;;;10479111;28;20032;-80
2022/05/14 07:53:32;;;;;;;6.82;2.80;;;;;;;;;;10479846;28;20025;-80
2022/05/14 07:58:33;;;;;;;6.32;2.88;;;;;;;;;;10466737;28;20136;-80
2022/05/14 08:03:34;;;;;;;5.70;2.88;;;;;;;;;;10464676;28;20029;-80
2022/05/14 08:08:36;;;;;;;7.78;3.22;;;;;;;;;;10463706;28;20029;-80
2022/05/14 08:13:37;;;;;;;9.95;3.60;;;;;;;;;;10464893;28;20029;-80
2022/05/14 08:18:38;;;;;;;7.95;3.17;;;;;;;;;;10463847;28;20474;-80
2022/05/14 08:28:59;;;;;;;6.85;3.00;;;;;;;;;;10463882;28;20028;-80
2022/05/14 08:34:00;;;;;;;8.82;3.13;;;;;;;;;;10461728;28;20035;-80
2022/05/14 08:39:01;;;;;;;7.32;2.80;;;;;;;;;;10462118;28;20488;-79
2022/05/14 08:44:05;;;;;;;9.63;3.60;;;;;;;;;;10461637;28;20025;-80
2022/05/14 08:49:26;;;;;;;7.82;3.35;;;;;;;;;;10465385;28;20024;-80
2022/05/14 08:54:27;;;;;;;6.95;2.83;;;;;;;;;;10461448;28;20538;-80
2022/05/14 08:59:40;;;;;;;7.80;4.05;;;;;;;;;;10464024;28;20037;-81
2022/05/14 09:04:42;;;;;;;7.78;3.25;;;;;;;;;;10470319;28;20017;-81
2022/05/14 09:09:50;;;;;;;11.88;4.40;;;;;;;;;;10468590;28;20027;-79
2022/05/14 09:14:59;;;;;;;11.02;4.90;;;;;;;;;;10465292;28;20036;-81
2022/05/14 09:20:00;;;;;;;6.82;2.50;;;;;;;;;;10461227;28;20025;-82
2022/05/14 09:25:12;;;;;;;11.75;4.05;;;;;;;;;;10461356;28;20029;-81
2022/05/14 09:30:23;;;;;;;8.68;3.42;;;;;;;;;;10461238;28;20021;-81
2022/05/14 09:35:26;;;;;;;7.82;3.30;;;;;;;;;;10462324;28;20044;-83
2022/05/14 09:40:29;;;;;;;7.97;3.75;;;;;;;;;;10465363;28;20035;-83
2022/05/14 09:45:34;;;;;;;9.77;4.10;;;;;;;;;;10478804;28;20055;-82
2022/05/14 09:50:39;;;;;;;7.32;3.22;;;;;;;;;;10466366;28;20017;-83
2022/05/14 09:56:00;;;;;;;7.03;3.53;;;;;;;;;;10466109;28;20033;-83
2022/05/14 10:01:09;;;;;;;5.63;3.20;;;;;;;;;;10463427;28;20033;-83
2022/05/14 10:06:30;;;;;;;9.25;3.17;;;;;;;;;;10463292;28;20025;-83
2022/05/14 10:11:37;;;;;;;8.63;3.88;;;;;;;;;;10476269;28;20048;-83
2022/05/14 10:16:47;;;;;;;8.45;3.40;;;;;;;;;;10504432;28;20021;-82
2022/05/14 10:22:11;;;;;;;9.63;4.00;;;;;;;;;;10493956;28;20041;-82
2022/05/14 10:27:35;;;;;;;8.48;4.05;;;;;;;;;;10468683;28;20494;-83
2022/05/14 10:32:37;;;;;;;6.70;3.38;;;;;;;;;;10467177;28;20048;-82
2022/05/14 10:37:44;;;;;;;9.75;5.47;;;;;;;;;;10471253;28;20029;-82
2022/05/14 10:42:56;;;;;;;12.93;5.05;;;;;;;;;;10468173;28;20097;-82
2022/05/14 10:48:03;;;;;;;9.80;4.38;;;;;;;;;;10467035;28;20078;-84
2022/05/14 10:53:09;;;;;;;7.82;4.85;;;;;;;;;;10470556;28;20017;-84
2022/05/14 10:58:49;;;;;;;8.95;4.63;;;;;;;;;;10514220;22;20141;-81
2022/05/14 11:15:49;;;;;;;11.23;6.10;;;;;;;;;;10334475;28;20030;-82
2022/05/14 11:27:28;;;;;;;9.05;5.03;;;;;;;;;;10331012;28;20026;-80
2022/05/14 11:32:53;;;;;;;11.52;5.80;;;;;;;;;;10266054;28;20026;-80
2022/05/14 11:37:58;;;;;;;7.60;4.32;;;;;;;;;;10327035;28;20035;-81
2022/05/14 11:43:22;;;;;;;8.43;3.80;;;;;;;;;;10327214;28;20166;-82
